Wetterdaten: Mittwoch, 11.03.2015
Datum Zeit Temp. A. Feuchte A. Luftdruck Regen Wind Richtung Richtung Sonnenschein ET UV Solar Taupunkt Windchill Windben Empfang
11.03.2015 00:00 5,1 C 59 % 1023,4 hPa 0,0 l/m 0,0 km/h (0 Bft) SW 222 0 min 0,000 mm 0,0 UV-I 0 W/m -2,2 C 5,1 C 0,0 km/h (0 Bft) 0,00 %
11.03.2015 00:15 5,0 C 60 % 1023,5 hPa 0,0 l/m 0,0 km/h (0 Bft) S 173 0 min 0,000 mm 0,0 UV-I 0 W/m -2,1 C 5,0 C 0,0 km/h (0 Bft) 0,00 %
11.03.2015 00:30 5,3 C 59 % 1023,4 hPa 0,0 l/m 0,4 km/h (0 Bft) W-NW 301 0 min 0,000 mm 0,0 UV-I 0 W/m -2,0 C 5,3 C 4,0 km/h (1 Bft) 0,00 %
11.03.2015 00:45 5,5 C 57 % 1023,6 hPa 0,0 l/m 1,4 km/h (1 Bft) W-SW 255 0 min 0,000 mm 0,0 UV-I 0 W/m -2,3 C 5,5 C 4,0 km/h (1 Bft) 0,00 %
11.03.2015 01:00 5,3 C 60 % 1023,3 hPa 0,0 l/m 0,0 km/h (0 Bft) S-SW 201 0 min 0,000 mm 0,0 UV-I 0 W/m -1,8 C 5,3 C 0,0 km/h (0 Bft) 0,00 %
11.03.2015 01:15 4,9 C 61 % 1023,1 hPa 0,0 l/m 0,0 km/h (0 Bft) SW 219 0 min 0,000 mm 0,0 UV-I 0 W/m -2,0 C 4,9 C 0,0 km/h (0 Bft) 0,00 %
11.03.2015 01:30 4,8 C 62 % 1023,5 hPa 0,0 l/m 0,0 km/h (0 Bft) W-SW 253 0 min 0,000 mm 0,0 UV-I 0 W/m -1,9 C 4,8 C 0,0 km/h (0 Bft) 0,00 %
11.03.2015 01:45 4,8 C 62 % 1023,0 hPa 0,0 l/m 0,0 km/h (0 Bft) S-SW 202 0 min 0,000 mm 0,0 UV-I 0 W/m -1,9 C 4,8 C 0,0 km/h (0 Bft) 0,00 %
11.03.2015 02:00 4,9 C 62 % 1023,1 hPa 0,0 l/m 0,0 km/h (0 Bft) S-SW 197 0 min 0,000 mm 0,0 UV-I 0 W/m -1,8 C 4,9 C 0,0 km/h (0 Bft) 0,00 %
11.03.2015 02:15 4,9 C 62 % 1023,1 hPa 0,0 l/m 0,0 km/h (0 Bft) S-SW 206 0 min 0,000 mm 0,0 UV-I 0 W/m -1,8 C 4,9 C 0,0 km/h (0 Bft) 0,00 %
11.03.2015 02:30 5,0 C 62 % 1022,8 hPa 0,0 l/m 0,4 km/h (0 Bft) S 184 0 min 0,000 mm 0,0 UV-I 0 W/m -1,7 C 5,0 C 4,0 km/h (1 Bft) 0,00 %
11.03.2015 02:45 5,2 C 61 % 1022,7 hPa 0,0 l/m 0,7 km/h (0 Bft) SW 216 0 min 0,000 mm 0,0 UV-I 0 W/m -1,7 C 5,2 C 4,0 km/h (1 Bft) 0,00 %
11.03.2015 03:00 5,3 C 62 % 1022,7 hPa 0,0 l/m 0,0 km/h (0 Bft) SW 226 0 min 0,000 mm 0,0 UV-I 0 W/m -1,4 C 5,3 C 0,0 km/h (0 Bft) 0,00 %
11.03.2015 03:15 5,4 C 61 % 1022,6 hPa 0,0 l/m 0,4 km/h (0 Bft) SW 217 0 min 0,000 mm 0,0 UV-I 0 W/m -1,5 C 5,4 C 4,0 km/h (1 Bft) 0,00 %
11.03.2015 03:30 5,5 C 61 % 1022,7 hPa 0,0 l/m 0,0 km/h (0 Bft) S 188 0 min 0,000 mm 0,0 UV-I 0 W/m -1,4 C 5,5 C 0,0 km/h (0 Bft) 0,00 %
11.03.2015 03:45 5,6 C 62 % 1022,7 hPa 0,0 l/m 0,0 km/h (0 Bft) SO 128 0 min 0,000 mm 0,0 UV-I 0 W/m -1,1 C 5,6 C 0,0 km/h (0 Bft) 0,00 %
11.03.2015 04:00 5,7 C 61 % 1022,6 hPa 0,0 l/m 0,7 km/h (0 Bft) W-SW 255 0 min 0,000 mm 0,0 UV-I 0 W/m -1,2 C 5,7 C 4,0 km/h (1 Bft) 0,00 %
11.03.2015 04:15 6,0 C 60 % 1022,3 hPa 0,0 l/m 0,4 km/h (0 Bft) W-NW 292 0 min 0,000 mm 0,0 UV-I 0 W/m -1,2 C 6,0 C 4,0 km/h (1 Bft) 0,00 %
11.03.2015 04:30 6,0 C 60 % 1022,4 hPa 0,0 l/m 4,3 km/h (1 Bft) W-SW 251 0 min 0,000 mm 0,0 UV-I 0 W/m -1,2 C 6,0 C 7,9 km/h (2 Bft) 0,00 %
11.03.2015 04:45 5,9 C 62 % 1022,4 hPa 0,0 l/m 4,3 km/h (1 Bft) S-SW 196 0 min 0,000 mm 0,0 UV-I 0 W/m -0,8 C 5,9 C 7,9 km/h (2 Bft) 0,00 %
11.03.2015 05:00 5,8 C 63 % 1022,5 hPa 0,0 l/m 0,7 km/h (0 Bft) W-SW 254 0 min 0,000 mm 0,0 UV-I 0 W/m -0,7 C 5,8 C 4,0 km/h (1 Bft) 0,00 %
11.03.2015 05:15 5,8 C 67 % 1022,4 hPa 0,0 l/m 1,8 km/h (1 Bft) W-SW 252 0 min 0,000 mm 0,0 UV-I 0 W/m 0,2 C 5,8 C 4,0 km/h (1 Bft) 0,00 %
11.03.2015 05:30 5,5 C 70 % 1022,4 hPa 0,0 l/m 0,0 km/h (0 Bft) W-SW 255 0 min 0,000 mm 0,0 UV-I 0 W/m 0,5 C 5,5 C 0,0 km/h (0 Bft) 0,00 %
11.03.2015 05:45 5,3 C 73 % 1022,3 hPa 0,0 l/m 0,0 km/h (0 Bft) SO 140 0 min 0,000 mm 0,0 UV-I 0 W/m 0,9 C 5,3 C 0,0 km/h (0 Bft) 0,00 %
11.03.2015 06:00 5,3 C 75 % 1022,3 hPa 0,0 l/m 0,0 km/h (0 Bft) SW 225 0 min 0,000 mm 0,0 UV-I 0 W/m 1,2 C 5,3 C 0,0 km/h (0 Bft) 0,00 %
11.03.2015 06:15 5,1 C 80 % 1022,5 hPa 0,3 l/m 0,0 km/h (0 Bft) SW 229 0 min 0,000 mm 0,0 UV-I 0 W/m 1,9 C 5,1 C 0,0 km/h (0 Bft) 0,00 %
11.03.2015 06:30 4,9 C 83 % 1022,7 hPa 0,3 l/m 0,0 km/h (0 Bft) S-SW 211 0 min 0,000 mm 0,0 UV-I 0 W/m 2,3 C 4,9 C 0,0 km/h (0 Bft) 0,00 %
11.03.2015 06:45 4,9 C 85 % 1022,7 hPa 0,3 l/m 0,0 km/h (0 Bft) S 176 0 min 0,000 mm 0,0 UV-I 0 W/m 2,6 C 4,9 C 0,0 km/h (0 Bft) 0,00 %
11.03.2015 07:00 4,9 C 86 % 1022,6 hPa 0,3 l/m 0,7 km/h (0 Bft) SW 236 0 min 0,000 mm 0,0 UV-I 0 W/m 2,8 C 4,9 C 4,0 km/h (1 Bft) 0,00 %
11.03.2015 07:15 4,9 C 87 % 1022,8 hPa 0,0 l/m 0,0 km/h (0 Bft) S 187 0 min 0,000 mm 0,0 UV-I 2 W/m 2,9 C 4,9 C 0,0 km/h (0 Bft) 0,00 %
11.03.2015 07:30 4,9 C 87 % 1022,5 hPa 0,6 l/m 0,0 km/h (0 Bft) S-SW 210 0 min 0,000 mm 0,0 UV-I 7 W/m 2,9 C 4,9 C 0,0 km/h (0 Bft) 0,00 %
11.03.2015 07:45 5,0 C 88 % 1022,6 hPa 0,9 l/m 1,4 km/h (1 Bft) W-SW 253 0 min 0,000 mm 0,0 UV-I 6 W/m 3,2 C 5,0 C 4,0 km/h (1 Bft) 0,00 %
11.03.2015 08:00 5,0 C 88 % 1022,7 hPa 0,9 l/m 0,4 km/h (0 Bft) S-SW 210 0 min 0,000 mm 0,0 UV-I 6 W/m 3,2 C 5,0 C 4,0 km/h (1 Bft) 0,00 %
11.03.2015 08:15 5,0 C 89 % 1022,6 hPa 0,6 l/m 0,0 km/h (0 Bft) SW 221 0 min 0,000 mm 0,0 UV-I 16 W/m 3,3 C 5,0 C 0,0 km/h (0 Bft) 0,00 %
11.03.2015 08:30 4,9 C 89 % 1022,9 hPa 0,3 l/m 3,2 km/h (1 Bft) W 267 0 min 0,000 mm 0,0 UV-I 3 W/m 3,2 C 4,9 C 4,0 km/h (1 Bft) 0,00 %
11.03.2015 08:45 4,7 C 89 % 1023,1 hPa 0,3 l/m 2,2 km/h (1 Bft) W-SW 252 0 min 0,000 mm 0,0 UV-I 20 W/m 3,0 C 4,7 C 4,0 km/h (1 Bft) 0,00 %
11.03.2015 09:00 4,5 C 89 % 1023,3 hPa 0,3 l/m 0,4 km/h (0 Bft) W-SW 256 0 min 0,000 mm 1,0 UV-I 50 W/m 2,8 C 4,5 C 4,0 km/h (1 Bft) 0,00 %
11.03.2015 09:15 4,4 C 90 % 1023,6 hPa 0,3 l/m 0,7 km/h (0 Bft) N-NW 345 0 min 0,000 mm 1,0 UV-I 45 W/m 2,9 C 4,4 C 4,0 km/h (1 Bft) 0,00 %
11.03.2015 09:30 4,4 C 86 % 1022,8 hPa 0,3 l/m 0,0 km/h (0 Bft) W-SW 256 0 min 0,000 mm 2,0 UV-I 163 W/m 2,3 C 4,4 C 0,0 km/h (0 Bft) 0,00 %
11.03.2015 09:45 4,5 C 83 % 1022,8 hPa 0,0 l/m 1,8 km/h (1 Bft) W-SW 253 0 min 0,000 mm 1,0 UV-I 207 W/m 1,9 C 4,5 C 4,0 km/h (1 Bft) 0,00 %
11.03.2015 10:00 4,0 C 84 % 1024,2 hPa 0,0 l/m 0,0 km/h (0 Bft) N-NW 331 0 min 0,000 mm 1,0 UV-I 65 W/m 1,5 C 4,0 C 0,0 km/h (0 Bft) 0,00 %
11.03.2015 10:15 4,0 C 83 % 1024,4 hPa 0,0 l/m 0,0 km/h (0 Bft) SW 235 0 min 0,000 mm 1,0 UV-I 62 W/m 1,4 C 4,0 C 0,0 km/h (0 Bft) 0,00 %
11.03.2015 10:30 4,1 C 82 % 1023,9 hPa 0,6 l/m 4,3 km/h (1 Bft) W 280 0 min 0,000 mm 2,0 UV-I 115 W/m 1,3 C 4,1 C 7,9 km/h (2 Bft) 0,00 %
11.03.2015 10:45 4,4 C 78 % 1023,6 hPa 0,0 l/m 1,8 km/h (1 Bft) N 353 0 min 0,000 mm 3,0 UV-I 252 W/m 0,9 C 4,4 C 4,0 km/h (1 Bft) 0,00 %
11.03.2015 11:00 4,6 C 74 % 1023,8 hPa 0,0 l/m 2,2 km/h (1 Bft) W 276 0 min 0,000 mm 2,0 UV-I 246 W/m 0,4 C 4,6 C 4,0 km/h (1 Bft) 0,00 %
11.03.2015 11:15 4,6 C 73 % 1024,2 hPa 0,0 l/m 0,0 km/h (0 Bft) N-NW 342 0 min 0,000 mm 2,0 UV-I 120 W/m 0,2 C 4,6 C 0,0 km/h (0 Bft) 0,00 %
11.03.2015 11:30 4,5 C 74 % 1024,6 hPa 0,0 l/m 0,7 km/h (0 Bft) N-NW 337 0 min 0,000 mm 2,0 UV-I 126 W/m 0,3 C 4,5 C 4,0 km/h (1 Bft) 0,00 %
11.03.2015 11:45 4,7 C 74 % 1024,6 hPa 0,0 l/m 4,3 km/h (1 Bft) W-NW 296 0 min 0,000 mm 1,0 UV-I 164 W/m 0,5 C 4,7 C 7,9 km/h (2 Bft) 0,00 %
11.03.2015 12:00 4,8 C 71 % 1024,0 hPa 0,0 l/m 0,7 km/h (0 Bft) N-NO 28 0 min 0,000 mm 2,0 UV-I 202 W/m -0,0 C 4,8 C 4,0 km/h (1 Bft) 0,00 %
11.03.2015 12:15 5,6 C 70 % 1023,8 hPa 0,0 l/m 5,4 km/h (1 Bft) W-NW 299 0 min 0,000 mm 2,0 UV-I 239 W/m 0,6 C 5,6 C 7,9 km/h (2 Bft) 0,00 %
11.03.2015 12:30 5,8 C 66 % 1023,6 hPa 0,0 l/m 0,0 km/h (0 Bft) S-SW 201 0 min 0,000 mm 3,0 UV-I 287 W/m -0,0 C 5,8 C 0,0 km/h (0 Bft) 0,00 %
11.03.2015 12:45 6,8 C 62 % 1023,2 hPa 0,0 l/m 0,0 km/h (0 Bft) SW 216 0 min 0,000 mm 3,0 UV-I 328 W/m 0,0 C 6,8 C 0,0 km/h (0 Bft) 0,00 %
11.03.2015 13:00 6,6 C 66 % 1023,4 hPa 0,0 l/m 0,0 km/h (0 Bft) O-NO 62 0 min 0,000 mm 2,0 UV-I 206 W/m 0,7 C 6,6 C 0,0 km/h (0 Bft) 0,00 %
11.03.2015 13:15 5,7 C 70 % 1023,6 hPa 0,0 l/m 0,0 km/h (0 Bft) NO 56 0 min 0,000 mm 1,0 UV-I 102 W/m 0,7 C 5,7 C 0,0 km/h (0 Bft) 0,00 %
11.03.2015 13:30 4,8 C 72 % 1024,4 hPa 0,0 l/m 0,4 km/h (0 Bft) W-SW 256 0 min 0,000 mm 1,0 UV-I 72 W/m 0,2 C 4,8 C 4,0 km/h (1 Bft) 0,00 %
11.03.2015 13:45 4,7 C 72 % 1024,4 hPa 0,0 l/m 0,0 km/h (0 Bft) SW 222 0 min 0,000 mm 1,0 UV-I 51 W/m 0,1 C 4,7 C 0,0 km/h (0 Bft) 0,00 %
11.03.2015 14:00 5,4 C 68 % 1023,4 hPa 0,0 l/m 1,4 km/h (1 Bft) O-NO 73 0 min 0,000 mm 2,0 UV-I 186 W/m -0,0 C 5,4 C 4,0 km/h (1 Bft) 0,00 %
11.03.2015 14:15 6,1 C 60 % 1023,3 hPa 0,0 l/m 1,4 km/h (1 Bft) W-SW 255 0 min 0,000 mm 2,0 UV-I 229 W/m -1,1 C 6,1 C 4,0 km/h (1 Bft) 0,00 %
11.03.2015 14:30 6,3 C 54 % 1023,0 hPa 0,0 l/m 0,4 km/h (0 Bft) NW 320 0 min 0,000 mm 2,0 UV-I 201 W/m -2,3 C 6,3 C 4,0 km/h (1 Bft) 0,00 %
11.03.2015 14:45 6,2 C 52 % 1023,0 hPa 0,0 l/m 1,4 km/h (1 Bft) N-NW 333 0 min 0,000 mm 2,0 UV-I 214 W/m -2,9 C 6,2 C 4,0 km/h (1 Bft) 0,00 %
11.03.2015 15:00 5,8 C 54 % 1023,1 hPa 0,0 l/m 4,0 km/h (1 Bft) NO 43 0 min 0,000 mm 2,0 UV-I 143 W/m -2,8 C 5,8 C 7,9 km/h (2 Bft) 0,00 %
11.03.2015 15:15 5,9 C 53 % 1023,2 hPa 0,0 l/m 3,2 km/h (1 Bft) N-NO 28 0 min 0,000 mm 2,0 UV-I 158 W/m -2,9 C 5,9 C 4,0 km/h (1 Bft) 0,00 %
11.03.2015 15:30 5,4 C 52 % 1023,9 hPa 0,0 l/m 13,3 km/h (3 Bft) N-NO 33 0 min 0,000 mm 1,0 UV-I 115 W/m -3,7 C 0,5 C 15,8 km/h (3 Bft) 0,00 %
11.03.2015 15:45 5,3 C 51 % 1024,1 hPa 0,0 l/m 9,0 km/h (2 Bft) O-NO 75 0 min 0,000 mm 1,0 UV-I 158 W/m -4,0 C 3,1 C 11,9 km/h (2 Bft) 0,00 %
11.03.2015 16:00 5,3 C 50 % 1024,3 hPa 0,0 l/m 2,9 km/h (1 Bft) W-SW 256 0 min 0,000 mm 1,0 UV-I 116 W/m -4,3 C 5,3 C 4,0 km/h (1 Bft) 0,00 %
11.03.2015 16:15 5,2 C 51 % 1024,4 hPa 0,0 l/m 0,0 km/h (0 Bft) N 357 0 min 0,000 mm 1,0 UV-I 80 W/m -4,1 C 5,2 C 0,0 km/h (0 Bft) 0,00 %
11.03.2015 16:30 5,1 C 50 % 1024,4 hPa 0,0 l/m 4,7 km/h (1 Bft) N 351 0 min 0,000 mm 1,0 UV-I 90 W/m -4,4 C 5,1 C 7,9 km/h (2 Bft) 0,00 %
11.03.2015 16:45 4,9 C 50 % 1024,9 hPa 0,0 l/m 0,7 km/h (0 Bft) NO 54 0 min 0,000 mm 1,0 UV-I 60 W/m -4,6 C 4,9 C 4,0 km/h (1 Bft) 0,00 %
11.03.2015 17:00 4,5 C 47 % 1025,1 hPa 0,0 l/m 2,9 km/h (1 Bft) NO 54 0 min 0,000 mm 1,0 UV-I 37 W/m -5,8 C 4,5 C 4,0 km/h (1 Bft) 0,00 %
11.03.2015 17:15 4,4 C 47 % 1025,3 hPa 0,0 l/m 0,0 km/h (0 Bft) N-NO 19 0 min 0,000 mm 0,0 UV-I 29 W/m -5,9 C 4,4 C 0,0 km/h (0 Bft) 0,00 %
11.03.2015 17:30 4,3 C 49 % 1025,7 hPa 0,0 l/m 0,7 km/h (0 Bft) W-SW 251 0 min 0,000 mm 0,0 UV-I 18 W/m -5,5 C 4,3 C 4,0 km/h (1 Bft) 0,00 %
11.03.2015 17:45 4,3 C 50 % 1025,9 hPa 0,0 l/m 0,4 km/h (0 Bft) W-SW 256 0 min 0,000 mm 0,0 UV-I 2 W/m -5,2 C 4,3 C 4,0 km/h (1 Bft) 0,00 %
11.03.2015 18:00 4,1 C 52 % 1026,2 hPa 0,0 l/m 0,4 km/h (0 Bft) N-NW 329 0 min 0,000 mm 0,0 UV-I 0 W/m -4,9 C 4,1 C 4,0 km/h (1 Bft) 0,00 %
11.03.2015 18:15 4,0 C 51 % 1026,5 hPa 0,0 l/m 0,0 km/h (0 Bft) SW 226 0 min 0,000 mm 0,0 UV-I 0 W/m -5,2 C 4,0 C 0,0 km/h (0 Bft) 0,00 %
11.03.2015 18:30 3,8 C 52 % 1026,7 hPa 0,0 l/m 0,0 km/h (0 Bft) SW 216 0 min 0,000 mm 0,0 UV-I 0 W/m -5,1 C 3,8 C 0,0 km/h (0 Bft) 0,00 %
11.03.2015 18:45 3,7 C 50 % 1026,9 hPa 0,0 l/m 0,0 km/h (0 Bft) SW 227 0 min 0,000 mm 0,0 UV-I 0 W/m -5,7 C 3,7 C 0,0 km/h (0 Bft) 0,00 %
11.03.2015 19:00 3,6 C 50 % 1026,8 hPa 0,0 l/m 0,0 km/h (0 Bft) SW 228 0 min 0,000 mm 0,0 UV-I 0 W/m -5,8 C 3,6 C 0,0 km/h (0 Bft) 0,00 %
11.03.2015 19:15 3,3 C 55 % 1027,1 hPa 0,0 l/m 0,0 km/h (0 Bft) W-SW 250 0 min 0,000 mm 0,0 UV-I 0 W/m -4,9 C 3,3 C 0,0 km/h (0 Bft) 0,00 %
11.03.2015 19:30 3,0 C 55 % 1027,3 hPa 0,0 l/m 0,0 km/h (0 Bft) SW 230 0 min 0,000 mm 0,0 UV-I 0 W/m -5,1 C 3,0 C 0,0 km/h (0 Bft) 0,00 %
11.03.2015 19:45 2,7 C 55 % 1027,6 hPa 0,0 l/m 0,0 km/h (0 Bft) W-SW 237 0 min 0,000 mm 0,0 UV-I 0 W/m -5,4 C 2,7 C 0,0 km/h (0 Bft) 0,00 %
11.03.2015 20:00 2,6 C 54 % 1027,5 hPa 0,0 l/m 0,0 km/h (0 Bft) SW 214 0 min 0,000 mm 0,0 UV-I 0 W/m -5,8 C 2,6 C 0,0 km/h (0 Bft) 0,00 %
11.03.2015 20:15 2,3 C 52 % 1027,7 hPa 0,0 l/m 0,0 km/h (0 Bft) SW 214 0 min 0,000 mm 0,0 UV-I 0 W/m -6,5 C 2,3 C 0,0 km/h (0 Bft) 0,00 %
11.03.2015 20:30 2,2 C 54 % 1027,9 hPa 0,0 l/m 0,0 km/h (0 Bft) SW 214 0 min 0,000 mm 0,0 UV-I 0 W/m -6,1 C 2,2 C 0,0 km/h (0 Bft) 0,00 %
11.03.2015 20:45 2,0 C 59 % 1027,9 hPa 0,0 l/m 0,0 km/h (0 Bft) S-SW 205 0 min 0,000 mm 0,0 UV-I 0 W/m -5,2 C 2,0 C 0,0 km/h (0 Bft) 0,00 %
11.03.2015 21:00 1,9 C 60 % 1028,1 hPa 0,0 l/m 0,0 km/h (0 Bft) S-SW 205 0 min 0,000 mm 0,0 UV-I 0 W/m -5,0 C 1,9 C 0,0 km/h (0 Bft) 0,00 %
11.03.2015 21:15 1,8 C 64 % 1028,0 hPa 0,0 l/m 0,0 km/h (0 Bft) S-SW 204 0 min 0,000 mm 0,0 UV-I 0 W/m -4,3 C 1,8 C 0,0 km/h (0 Bft) 0,00 %
11.03.2015 21:30 1,8 C 66 % 1028,3 hPa 0,0 l/m 0,0 km/h (0 Bft) S 186 0 min 0,000 mm 0,0 UV-I 0 W/m -3,9 C 1,8 C 0,0 km/h (0 Bft) 0,00 %
11.03.2015 21:45 1,9 C 66 % 1028,4 hPa 0,0 l/m 0,0 km/h (0 Bft) S-SW 195 0 min 0,000 mm 0,0 UV-I 0 W/m -3,8 C 1,9 C 0,0 km/h (0 Bft) 0,00 %
11.03.2015 22:00 1,8 C 67 % 1028,5 hPa 0,0 l/m 0,0 km/h (0 Bft) S 187 0 min 0,000 mm 0,0 UV-I 0 W/m -3,7 C 1,8 C 0,0 km/h (0 Bft) 0,00 %
11.03.2015 22:15 1,7 C 69 % 1028,7 hPa 0,0 l/m 0,0 km/h (0 Bft) S-SW 197 0 min 0,000 mm 0,0 UV-I 0 W/m -3,4 C 1,7 C 0,0 km/h (0 Bft) 0,00 %
11.03.2015 22:30 1,7 C 71 % 1028,8 hPa 0,0 l/m 0,0 km/h (0 Bft) W-SW 253 0 min 0,000 mm 0,0 UV-I 0 W/m -3,0 C 1,7 C 0,0 km/h (0 Bft) 0,00 %
11.03.2015 22:45 1,9 C 71 % 1028,7 hPa 0,0 l/m 0,0 km/h (0 Bft) S 173 0 min 0,000 mm 0,0 UV-I 0 W/m -2,8 C 1,9 C 0,0 km/h (0 Bft) 0,00 %
11.03.2015 23:00 1,9 C 72 % 1028,6 hPa 0,0 l/m 0,0 km/h (0 Bft) SW 216 0 min 0,000 mm 0,0 UV-I 0 W/m -2,6 C 1,9 C 0,0 km/h (0 Bft) 0,00 %
11.03.2015 23:15 1,8 C 72 % 1028,8 hPa 0,0 l/m 0,0 km/h (0 Bft) W-SW 256 0 min 0,000 mm 0,0 UV-I 0 W/m -2,7 C 1,8 C 0,0 km/h (0 Bft) 0,00 %
11.03.2015 23:30 1,8 C 71 % 1028,6 hPa 0,0 l/m 0,0 km/h (0 Bft) SW 216 0 min 0,000 mm 0,0 UV-I 0 W/m -2,9 C 1,8 C 0,0 km/h (0 Bft) 0,00 %
11.03.2015 23:45 1,7 C 71 % 1028,6 hPa 0,0 l/m 0,0 km/h (0 Bft) SW 218 0 min 0,000 mm 0,0 UV-I 0 W/m -3,0 C 1,7 C 0,0 km/h (0 Bft) 0,00 %
_ Min-Zeit 22:15 17:00 04:15 - 00:00 - - - - - - 20:15 15:30 00:00 00:00
Minimum _ 1,7 C 47 % 1022,3 hPa - 0,0 km/h (0 Bft) - - - - - - -6,5 C 0,5 C 0,0 km/h (0 Bft) 0,00 %
_ Max-Zeit 12:45 09:15 22:30 07:45 15:30 - - 00:00 00:00 10:45 12:45 08:15 12:45 15:30 00:00
Maximum _ 6,8 C 90 % 1028,8 hPa 0,9 l/m 13,3 km/h
N-NO (3 Bft)
- - 0 min 0,000 mm 3,0 UV-I 328 W/m 3,3 C 6,8 C 15,8 km/h
N-NO (3 Bft)
0,00 %
Durchschnitt _ 4,5 C 66 % 1024,5 hPa #6,3 l/m 1,0 km/h (0 Bft) W-SW - #0 min. #0,000 mm 1,6 UV-I 116 W/m -1,5 C 4,4 C 2,3 km/h (1 Bft) 0,00 %